Time;durP1;ratioP1;P1;durP2;ratioP2;P2;SDS_P1;SDS_P2;PMS_P1;PMS_P2;Temp;Humidity;BMP_temperature;BMP_pressure;BME280_temperature;BME280_humidity;BME280_pressure;Samples;Min_cycle;Max_cycle;Signal;HPM_P1;HPM_P2
2023/09/19 00:02:39;;;;;;;1.08;0.47;;;;;;;21.47;100.00;100634.03;10355907;28;20057;-86
2023/09/19 00:07:41;;;;;;;0.17;0.17;;;;;;;21.62;100.00;100630.25;10362311;28;20049;-85
2023/09/19 00:12:43;;;;;;;2.03;1.17;;;;;;;21.77;100.00;100640.34;10377413;28;20548;-85
2023/09/19 00:17:45;;;;;;;0.00;0.00;;;;;;;21.62;100.00;100638.94;10387876;28;20050;-85
2023/09/19 00:22:46;;;;;;;1.02;0.30;;;;;;;21.18;100.00;100644.31;10386340;28;20145;-86
2023/09/19 00:27:51;;;;;;;0.00;0.00;;;;;;;21.55;100.00;100643.47;10387130;28;20057;-85
2023/09/19 00:32:53;;;;;;;0.40;0.28;;;;;;;21.35;100.00;100643.06;10390947;28;20114;-84
2023/09/19 00:37:55;;;;;;;0.00;0.00;;;;;;;21.27;100.00;100650.22;10375494;28;20049;-85
2023/09/19 00:43:01;;;;;;;0.22;0.05;;;;;;;21.51;100.00;100654.91;10395170;28;20077;-85
2023/09/19 00:48:03;;;;;;;0.00;0.00;;;;;;;21.11;100.00;100666.28;10361873;28;20048;-85
2023/09/19 00:53:09;;;;;;;0.20;0.10;;;;;;;20.51;100.00;100670.97;10410233;28;20049;-84
2023/09/19 00:58:12;;;;;;;0.10;0.10;;;;;;;20.78;100.00;100673.97;10363769;28;20041;-83
2023/09/19 01:03:14;;;;;;;0.00;0.00;;;;;;;21.09;100.00;100673.34;10376974;28;20046;-86
2023/09/19 01:08:16;;;;;;;0.00;0.00;;;;;;;21.11;100.00;100678.53;10384055;28;20050;-84
2023/09/19 01:13:34;;;;;;;0.13;0.13;;;;;;;21.02;100.00;100682.22;10377095;28;20124;-84
2023/09/19 01:18:46;;;;;;;0.40;0.20;;;;;;;20.76;100.00;100691.44;10358490;28;20844;-85
2023/09/19 01:24:10;;;;;;;0.08;0.08;;;;;;;20.51;100.00;100691.03;10364822;28;20050;-86
2023/09/19 01:29:39;;;;;;;0.00;0.00;;;;;;;20.72;100.00;100695.00;10381209;28;20037;-84
2023/09/19 01:34:58;;;;;;;0.00;0.00;;;;;;;20.58;100.00;100700.50;10378024;28;20054;-85
2023/09/19 01:40:18;;;;;;;0.10;0.10;;;;;;;20.53;100.00;100700.56;10389874;28;20103;-85
2023/09/19 01:45:42;;;;;;;0.32;0.05;;;;;;;20.58;100.00;100698.75;10376922;28;20417;-84
2023/09/19 01:50:58;;;;;;;1.35;0.47;;;;;;;20.50;100.00;100716.34;10371390;28;20042;-86
2023/09/19 01:56:02;;;;;;;0.00;0.00;;;;;;;20.57;100.00;100712.72;10368455;28;20046;-85
2023/09/19 02:01:05;;;;;;;0.40;0.20;;;;;;;20.59;100.00;100705.69;10372722;28;20513;-84
2023/09/19 02:06:11;;;;;;;0.20;0.10;;;;;;;20.40;100.00;100709.56;10382856;28;20121;-86
2023/09/19 02:11:13;;;;;;;0.52;0.52;;;;;;;19.66;100.00;100716.81;10383886;28;20080;-84
2023/09/19 02:16:17;;;;;;;0.43;0.15;;;;;;;20.11;100.00;100721.38;10350574;28;20129;-85
2023/09/19 02:21:18;;;;;;;0.00;0.00;;;;;;;20.18;100.00;100717.78;10356036;28;20045;-85
2023/09/19 02:26:20;;;;;;;0.20;0.20;;;;;;;19.82;100.00;100722.69;10389331;28;20101;-85
2023/09/19 02:31:22;;;;;;;0.80;0.52;;;;;;;20.40;100.00;100727.88;10379934;28;20104;-86
2023/09/19 02:36:24;;;;;;;0.00;0.00;;;;;;;19.62;100.00;100742.13;10377051;28;20038;-83
2023/09/19 02:41:25;;;;;;;6.70;0.47;;;;;;;20.06;100.00;100736.31;10365821;28;20409;-84
2023/09/19 02:46:27;;;;;;;0.20;0.00;;;;;;;19.94;100.00;100719.91;10391228;28;20382;-86
2023/09/19 02:51:29;;;;;;;0.80;0.47;;;;;;;20.05;100.00;100731.94;10375807;28;20501;-84
2023/09/19 02:56:32;;;;;;;1.33;1.23;;;;;;;19.84;100.00;100736.63;10376879;28;20049;-86
2023/09/19 03:01:33;;;;;;;0.88;0.10;;;;;;;19.90;100.00;100739.16;10377243;28;20136;-85
2023/09/19 03:06:36;;;;;;;0.00;0.00;;;;;;;19.75;100.00;100747.19;10340632;28;20093;-85
2023/09/19 03:11:40;;;;;;;0.30;0.00;;;;;;;19.72;100.00;100752.44;10371318;28;20060;-84
2023/09/19 03:16:42;;;;;;;0.68;0.68;;;;;;;19.59;100.00;100752.63;10365757;28;20046;-86
2023/09/19 03:21:44;;;;;;;0.10;0.10;;;;;;;19.10;100.00;100759.34;10374141;28;20409;-87
2023/09/19 03:26:46;;;;;;;0.03;0.03;;;;;;;18.97;100.00;100769.06;10379626;28;20137;-85
2023/09/19 03:31:49;;;;;;;0.05;0.05;;;;;;;19.31;100.00;100762.59;10383099;28;20053;-83
2023/09/19 03:36:51;;;;;;;0.08;0.08;;;;;;;18.76;100.00;100758.81;10383238;28;20046;-83
2023/09/19 03:41:53;;;;;;;0.13;0.13;;;;;;;18.55;100.00;100769.47;10361998;28;20054;-84
2023/09/19 03:46:56;;;;;;;1.08;1.00;;;;;;;18.80;100.00;100757.94;10383839;28;20511;-86
2023/09/19 03:51:58;;;;;;;0.00;0.00;;;;;;;18.37;100.00;100756.59;10401885;28;20052;-83
2023/09/19 03:57:01;;;;;;;0.30;0.30;;;;;;;18.51;100.00;100759.06;10372314;28;20054;-83
2023/09/19 04:02:04;;;;;;;1.00;0.47;;;;;;;18.66;100.00;100758.91;10397987;28;20567;-84
2023/09/19 04:07:06;;;;;;;0.10;0.10;;;;;;;18.28;100.00;100762.72;10399885;28;20424;-84
2023/09/19 04:12:11;;;;;;;0.00;0.00;;;;;;;18.58;100.00;100760.72;10378211;28;20116;-85
2023/09/19 04:17:12;;;;;;;0.03;0.03;;;;;;;18.59;100.00;100752.03;10378325;28;20429;-84
2023/09/19 04:22:15;;;;;;;1.90;1.65;;;;;;;18.41;100.00;100749.63;10381123;28;20497;-83
2023/09/19 04:27:18;;;;;;;0.22;0.05;;;;;;;18.23;100.00;100759.31;10378186;28;20097;-84
2023/09/19 04:32:21;;;;;;;0.00;0.00;;;;;;;18.61;100.00;100771.16;10388353;28;20050;-85
2023/09/19 04:37:22;;;;;;;0.00;0.00;;;;;;;18.94;100.00;100778.69;10398562;28;20046;-86
2023/09/19 04:42:25;;;;;;;0.03;0.00;;;;;;;18.67;100.00;100797.19;10389961;28;20052;-86
2023/09/19 04:47:27;;;;;;;0.05;0.05;;;;;;;18.80;100.00;100807.53;10388929;28;20069;-84
2023/09/19 04:52:31;;;;;;;0.57;0.32;;;;;;;18.86;100.00;100815.28;10395939;28;20128;-85
2023/09/19 04:57:32;;;;;;;0.00;0.00;;;;;;;18.38;100.00;100821.78;10396643;28;20053;-82
2023/09/19 05:02:34;;;;;;;0.20;0.20;;;;;;;18.53;100.00;100820.81;10382795;28;20049;-85
2023/09/19 05:07:37;;;;;;;0.20;0.20;;;;;;;18.71;100.00;100840.66;10381698;28;20508;-83
2023/09/19 05:12:39;;;;;;;1.80;0.63;;;;;;;18.26;100.00;100837.53;10379788;28;20100;-85
2023/09/19 05:17:40;;;;;;;0.00;0.00;;;;;;;18.51;100.00;100832.09;10394058;28;20438;-83
2023/09/19 05:22:43;;;;;;;0.40;0.00;;;;;;;18.14;100.00;100828.03;10381635;28;20052;-84
2023/09/19 05:27:44;;;;;;;0.20;0.20;;;;;;;18.54;100.00;100819.03;10387871;28;20073;-84
2023/09/19 05:32:46;;;;;;;0.00;0.00;;;;;;;18.52;100.00;100826.91;10370215;28;20046;-82
2023/09/19 05:37:50;;;;;;;0.40;0.40;;;;;;;18.07;100.00;100821.16;10377253;28;20089;-83
2023/09/19 05:42:52;;;;;;;11.65;0.98;;;;;;;18.61;100.00;100817.25;10371903;28;20504;-84
2023/09/19 05:48:04;;;;;;;0.00;0.00;;;;;;;18.80;100.00;100828.41;10375901;28;20050;-85
2023/09/19 05:53:06;;;;;;;0.30;0.10;;;;;;;18.62;100.00;100840.72;10398048;28;20136;-85
2023/09/19 05:58:08;;;;;;;0.20;0.20;;;;;;;18.43;100.00;100844.38;10394416;28;20038;-86
2023/09/19 06:03:13;;;;;;;0.00;0.00;;;;;;;18.54;100.00;100842.53;10363442;28;20041;-86
2023/09/19 06:08:15;;;;;;;0.10;0.10;;;;;;;18.54;100.00;100842.53;10366648;28;20031;-84
2023/09/19 06:13:16;;;;;;;6.32;0.28;;;;;;;18.69;100.00;100845.00;10374234;28;20034;-84
2023/09/19 06:18:19;;;;;;;0.00;0.00;;;;;;;18.81;100.00;100853.59;10376428;28;20075;-84
2023/09/19 06:23:22;;;;;;;0.15;0.15;;;;;;;18.87;100.00;100861.41;10393243;28;20068;-85
2023/09/19 06:28:25;;;;;;;0.00;0.00;;;;;;;18.76;100.00;100864.09;10369045;28;20116;-85
2023/09/19 06:33:27;;;;;;;0.55;0.45;;;;;;;18.85;100.00;100865.75;10361404;28;20104;-86
2023/09/19 06:38:28;;;;;;;0.15;0.10;;;;;;;19.26;100.00;100861.88;10379960;28;20137;-85
2023/09/19 06:43:31;;;;;;;0.10;0.10;;;;;;;19.25;100.00;100872.34;10376161;28;20105;-86
2023/09/19 06:48:33;;;;;;;0.00;0.00;;;;;;;19.26;100.00;100874.09;10375759;28;20046;-84
2023/09/19 06:53:35;;;;;;;7.63;0.30;;;;;;;19.58;100.00;100876.34;10392430;28;20405;-85
2023/09/19 06:58:38;;;;;;;0.00;0.00;;;;;;;20.11;100.00;100878.31;10376550;28;20046;-86
2023/09/19 07:03:40;;;;;;;0.35;0.15;;;;;;;19.07;100.00;100881.25;10340156;28;20414;-84
2023/09/19 07:08:41;;;;;;;0.30;0.30;;;;;;;19.92;100.00;100869.84;10389601;28;20502;-85
2023/09/19 07:13:43;;;;;;;1.65;0.52;;;;;;;19.96;100.00;100879.38;10391434;28;20129;-85
2023/09/19 07:18:45;;;;;;;0.20;0.13;;;;;;;19.38;100.00;100883.53;10384837;28;20065;-82
2023/09/19 07:23:47;;;;;;;0.10;0.10;;;;;;;20.34;100.00;100877.09;10368621;28;20049;-85
2023/09/19 07:28:49;;;;;;;0.40;0.25;;;;;;;19.59;100.00;100887.63;10360845;28;20046;-85
2023/09/19 07:33:51;;;;;;;1.20;0.20;;;;;;;19.81;100.00;100885.66;10388778;28;20083;-83
2023/09/19 07:38:54;;;;;;;1.98;0.85;;;;;;;20.18;100.00;100882.56;10395049;28;20053;-84
2023/09/19 07:44:06;;;;;;;0.43;0.15;;;;;;;20.03;100.00;100883.63;10362368;28;20096;-83
2023/09/19 07:49:10;;;;;;;1.55;0.35;;;;;;;20.15;100.00;100881.75;10371732;28;20081;-84
2023/09/19 07:54:12;;;;;;;0.47;0.15;;;;;;;20.61;100.00;100874.03;10363896;28;20038;-83
2023/09/19 07:59:14;;;;;;;0.98;0.68;;;;;;;20.98;100.00;100890.03;10379582;28;20405;-81
2023/09/19 08:04:16;;;;;;;0.10;0.10;;;;;;;20.75;100.00;100888.69;10388828;28;20038;-83
2023/09/19 08:09:20;;;;;;;0.00;0.00;;;;;;;21.17;100.00;100896.69;10366360;28;20088;-83
2023/09/19 08:14:26;;;;;;;0.30;0.30;;;;;;;20.91;100.00;100894.53;10368096;28;20052;-82
2023/09/19 08:19:28;;;;;;;0.10;0.10;;;;;;;21.48;100.00;100908.34;10393051;28;20073;-83
2023/09/19 08:24:30;;;;;;;0.15;0.10;;;;;;;21.97;100.00;100901.25;10366472;28;20519;-83
2023/09/19 08:29:32;;;;;;;0.65;0.32;;;;;;;21.98;100.00;100903.00;10383459;28;20078;-84
2023/09/19 08:34:35;;;;;;;0.05;0.00;;;;;;;22.01;100.00;100910.78;10372760;28;20133;-84
2023/09/19 08:39:37;;;;;;;0.00;0.00;;;;;;;22.53;100.00;100902.63;10370016;28;20410;-83
2023/09/19 08:44:43;;;;;;;6.55;0.55;;;;;;;22.50;100.00;100901.84;10377262;28;20409;-84
2023/09/19 08:49:48;;;;;;;0.50;0.20;;;;;;;22.41;100.00;100916.94;10381096;28;20077;-83
2023/09/19 08:54:53;;;;;;;0.47;0.30;;;;;;;21.48;100.00;100909.19;10371818;28;20140;-81
2023/09/19 08:59:56;;;;;;;0.10;0.10;;;;;;;22.19;100.00;100905.13;10382697;28;20053;-81
2023/09/19 09:04:59;;;;;;;0.13;0.10;;;;;;;21.55;100.00;100908.22;10381286;28;20463;-84
2023/09/19 09:10:03;;;;;;;2.20;0.20;;;;;;;22.29;100.00;100907.56;10376184;28;20408;-80
2023/09/19 09:15:05;;;;;;;0.17;0.10;;;;;;;22.37;100.00;100900.38;10362805;28;20042;-82
2023/09/19 09:20:08;;;;;;;0.00;0.00;;;;;;;22.41;100.00;100904.69;10389848;28;20045;-84
2023/09/19 09:25:10;;;;;;;0.25;0.20;;;;;;;21.92;100.00;100908.38;10391176;28;20507;-81
2023/09/19 09:30:36;;;;;;;2.65;0.32;;;;;;;23.07;100.00;100896.91;10374628;28;20193;-81
2023/09/19 09:35:52;;;;;;;0.80;0.15;;;;;;;23.29;100.00;100891.09;10362110;28;20046;-81
2023/09/19 09:41:06;;;;;;;1.00;0.68;;;;;;;23.01;100.00;100886.56;10373400;28;20100;-82
2023/09/19 09:46:58;;;;;;;0.10;0.10;;;;;;;23.63;100.00;100884.03;10388442;28;20800;-82
2023/09/19 09:51:35;;;;;;;0.20;0.10;;;;;;;24.15;100.00;100882.50;10367149;28;20058;-82
2023/09/19 09:56:52;;;;;;;0.50;0.45;;;;;;;23.50;100.00;100891.41;10362067;28;20703;-81
2023/09/19 10:01:54;;;;;;;0.60;0.47;;;;;;;23.76;100.00;100878.38;10352615;28;20049;-82
2023/09/19 10:06:56;;;;;;;0.00;0.00;;;;;;;22.74;100.00;100864.50;10385390;28;20050;-81
2023/09/19 10:12:11;;;;;;;0.43;0.13;;;;;;;23.62;100.00;100864.78;10385083;28;20057;-81
2023/09/19 10:17:20;;;;;;;1.02;0.32;;;;;;;23.86;100.00;100878.13;10359852;28;20460;-79
2023/09/19 10:22:22;;;;;;;0.00;0.00;;;;;;;24.20;100.00;100861.28;10386529;28;20398;-80
2023/09/19 10:27:26;;;;;;;0.20;0.20;;;;;;;24.32;100.00;100863.53;10375620;28;20121;-81
2023/09/19 10:32:33;;;;;;;0.10;0.10;;;;;;;23.36;100.00;100869.00;10378616;28;20076;-80
2023/09/19 10:37:37;;;;;;;0.00;0.00;;;;;;;24.50;100.00;100869.13;10365822;28;20046;-83
2023/09/19 10:42:42;;;;;;;0.30;0.30;;;;;;;24.35;100.00;100855.53;10354087;28;20543;-80
2023/09/19 10:47:43;;;;;;;0.73;0.73;;;;;;;24.22;100.00;100857.69;10372289;28;20401;-80
2023/09/19 10:52:46;;;;;;;1.67;1.17;;;;;;;24.25;100.00;100859.38;10364785;28;20048;-81
2023/09/19 10:57:49;;;;;;;0.75;0.22;;;;;;;23.94;100.00;100862.97;10383122;28;20050;-80
2023/09/19 11:03:09;;;;;;;0.28;0.15;;;;;;;25.01;100.00;100859.53;10364304;28;20038;-80
2023/09/19 11:08:12;;;;;;;0.20;0.20;;;;;;;24.07;100.00;100874.84;10387492;28;20049;-81
2023/09/19 11:13:25;;;;;;;0.80;0.45;;;;;;;23.70;100.00;100868.03;10367564;28;20052;-80
2023/09/19 11:18:43;;;;;;;0.13;0.13;;;;;;;23.61;100.00;100847.28;10365950;28;20038;-81
2023/09/19 11:24:22;;;;;;;0.10;0.10;;;;;;;23.26;100.00;100841.28;10358902;28;20046;-80
2023/09/19 11:29:29;;;;;;;0.38;0.20;;;;;;;23.38;100.00;100829.56;10357655;28;20046;-81
2023/09/19 11:34:38;;;;;;;3.10;0.65;;;;;;;23.59;100.00;100849.94;10383924;28;20069;-80
2023/09/19 11:40:01;;;;;;;0.00;0.00;;;;;;;22.82;100.00;100821.38;10350603;28;20053;-82
2023/09/19 11:45:03;;;;;;;1.65;0.52;;;;;;;24.24;100.00;100802.38;10387471;28;20049;-82
2023/09/19 11:50:08;;;;;;;0.15;0.05;;;;;;;23.91;100.00;100813.06;10373130;28;20034;-83
2023/09/19 11:55:10;;;;;;;1.30;0.65;;;;;;;24.14;100.00;100803.59;10372375;28;20052;-80
2023/09/19 12:00:22;;;;;;;0.22;0.22;;;;;;;23.80;100.00;100815.13;10376924;28;20042;-81
2023/09/19 12:05:33;;;;;;;3.10;1.45;;;;;;;23.64;100.00;100828.78;10362207;28;20057;-82
2023/09/19 12:10:51;;;;;;;0.00;0.00;;;;;;;24.43;100.00;100809.66;10370680;28;20049;-82
2023/09/19 12:15:53;;;;;;;0.15;0.15;;;;;;;24.58;100.00;100798.63;10390206;28;20060;-82
2023/09/19 12:20:55;;;;;;;1.05;0.30;;;;;;;24.40;100.00;100794.84;10372036;28;20061;-80
2023/09/19 12:25:59;;;;;;;0.10;0.00;;;;;;;24.45;100.00;100808.69;10369038;28;20050;-80
2023/09/19 12:31:08;;;;;;;0.65;0.10;;;;;;;23.89;100.00;100809.59;10370946;28;20081;-82
2023/09/19 12:36:29;;;;;;;0.10;0.00;;;;;;;23.79;100.00;100798.50;10356955;28;20030;-82
2023/09/19 12:41:31;;;;;;;0.80;0.20;;;;;;;23.69;100.00;100792.69;10372925;28;20070;-81
2023/09/19 12:46:32;;;;;;;0.55;0.45;;;;;;;24.28;100.00;100789.97;10391415;28;20042;-81
2023/09/19 12:51:35;;;;;;;0.25;0.20;;;;;;;24.73;100.00;100786.69;10366731;28;20058;-82
2023/09/19 12:56:45;;;;;;;0.13;0.08;;;;;;;24.51;100.00;100783.94;10374479;28;20041;-81
2023/09/19 13:02:03;;;;;;;0.13;0.13;;;;;;;23.80;100.00;100794.09;10390789;28;20045;-79
2023/09/19 13:07:05;;;;;;;5.50;0.57;;;;;;;23.97;100.00;100802.34;10371731;28;20060;-81
2023/09/19 13:12:37;;;;;;;0.38;0.25;;;;;;;23.30;100.00;100790.31;10388597;28;20386;-81
2023/09/19 13:17:43;;;;;;;0.15;0.15;;;;;;;23.96;100.00;100790.09;10365969;28;20045;-80
2023/09/19 13:22:49;;;;;;;1.95;0.20;;;;;;;24.01;100.00;100793.47;10370965;28;20061;-79
2023/09/19 13:27:56;;;;;;;0.00;0.00;;;;;;;23.72;100.00;100787.31;10388411;28;20052;-81
2023/09/19 13:33:09;;;;;;;0.40;0.25;;;;;;;24.17;100.00;100769.25;10391487;28;20116;-80
2023/09/19 13:38:12;;;;;;;0.00;0.00;;;;;;;24.42;100.00;100781.63;10361528;28;20148;-79
2023/09/19 13:43:14;;;;;;;0.00;0.00;;;;;;;23.92;100.00;100775.31;10355327;28;20041;-80
2023/09/19 13:48:16;;;;;;;0.47;0.25;;;;;;;23.79;100.00;100774.84;10371190;28;20141;-80
2023/09/19 13:53:17;;;;;;;0.05;0.05;;;;;;;23.94;100.00;100781.41;10367572;28;20077;-80
2023/09/19 13:58:20;;;;;;;0.00;0.00;;;;;;;24.37;100.00;100785.28;10372575;28;20489;-80
2023/09/19 14:03:22;;;;;;;0.00;0.00;;;;;;;24.43;100.00;100768.38;10372844;28;20041;-79
2023/09/19 14:08:24;;;;;;;0.10;0.10;;;;;;;24.57;100.00;100764.44;10389153;28;20510;-80
2023/09/19 14:13:26;;;;;;;0.03;0.03;;;;;;;23.89;100.00;100778.03;10371262;28;20531;-79
2023/09/19 14:18:27;;;;;;;0.00;0.00;;;;;;;23.68;100.00;100769.91;10376362;28;20049;-80
2023/09/19 14:23:35;;;;;;;0.10;0.10;;;;;;;24.47;100.00;100769.13;10356115;28;20058;-81
2023/09/19 14:28:38;;;;;;;0.00;0.00;;;;;;;24.73;100.00;100775.31;10384723;28;20436;-80
2023/09/19 14:33:41;;;;;;;0.13;0.13;;;;;;;25.04;100.00;100767.16;10366752;28;20449;-80
2023/09/19 14:38:44;;;;;;;0.00;0.00;;;;;;;24.88;100.00;100774.78;10366759;28;20042;-81
2023/09/19 14:43:45;;;;;;;0.00;0.00;;;;;;;24.36;100.00;100774.78;10392762;28;20053;-80
2023/09/19 14:48:47;;;;;;;0.00;0.00;;;;;;;24.46;100.00;100767.44;10384731;28;20095;-79
2023/09/19 14:53:49;;;;;;;0.35;0.20;;;;;;;24.39;100.00;100770.25;10351692;28;20058;-81
2023/09/19 14:58:51;;;;;;;0.00;0.00;;;;;;;23.80;100.00;100776.56;10368418;28;20050;-80
2023/09/19 15:03:54;;;;;;;3.60;0.10;;;;;;;23.63;100.00;100782.34;10356412;28;20046;-78
2023/09/19 15:08:56;;;;;;;0.00;0.00;;;;;;;24.02;100.00;100763.59;10362730;28;20100;-80
2023/09/19 15:13:58;;;;;;;0.10;0.10;;;;;;;24.34;100.00;100753.78;10375347;28;20536;-80
2023/09/19 15:19:07;;;;;;;0.00;0.00;;;;;;;23.95;100.00;100756.81;10387773;28;20038;-80
2023/09/19 15:24:09;;;;;;;0.00;0.00;;;;;;;24.14;100.00;100772.00;10369030;28;20046;-79
2023/09/19 15:29:12;;;;;;;1.45;0.30;;;;;;;23.66;100.00;100761.19;10383199;28;20218;-81
2023/09/19 15:34:15;;;;;;;0.00;0.00;;;;;;;23.64;100.00;100777.94;10373280;28;20046;-82
2023/09/19 15:39:18;;;;;;;0.10;0.00;;;;;;;23.80;100.00;100762.53;10362188;28;20049;-79
2023/09/19 15:44:20;;;;;;;0.00;0.00;;;;;;;23.17;100.00;100773.16;10360940;28;20049;-80
2023/09/19 15:49:22;;;;;;;0.00;0.00;;;;;;;23.59;100.00;100765.81;10339178;28;20069;-79
2023/09/19 15:54:25;;;;;;;0.00;0.00;;;;;;;23.63;100.00;100761.31;10370425;28;20133;-79
2023/09/19 15:59:26;;;;;;;0.00;0.00;;;;;;;23.41;100.00;100763.72;10369207;28;20121;-80
2023/09/19 16:04:28;;;;;;;0.30;0.10;;;;;;;23.12;100.00;100761.00;10365064;28;20049;-80
2023/09/19 16:09:30;;;;;;;0.65;0.10;;;;;;;23.83;100.00;100767.72;10360086;28;20050;-79
2023/09/19 16:14:31;;;;;;;0.40;0.10;;;;;;;23.92;100.00;100757.75;10372408;28;20053;-79
2023/09/19 16:19:33;;;;;;;0.20;0.20;;;;;;;23.36;100.00;100769.09;10374295;28;20144;-78
2023/09/19 16:24:35;;;;;;;0.10;0.10;;;;;;;23.76;100.00;100773.16;10389887;28;20057;-79
2023/09/19 16:29:36;;;;;;;1.00;0.20;;;;;;;23.85;100.00;100755.38;10390146;28;20394;-79
2023/09/19 16:34:38;;;;;;;0.10;0.10;;;;;;;23.64;100.00;100783.19;10378485;28;20061;-81
2023/09/19 16:39:41;;;;;;;0.10;0.10;;;;;;;23.55;100.00;100782.56;10373248;28;20042;-79
2023/09/19 16:44:43;;;;;;;0.00;0.00;;;;;;;23.44;100.00;100782.88;10375884;28;20049;-79
2023/09/19 16:49:44;;;;;;;0.00;0.00;;;;;;;24.11;100.00;100780.00;10376166;28;20053;-80
2023/09/19 16:54:46;;;;;;;0.75;0.30;;;;;;;23.76;100.00;100773.16;10389881;28;20069;-79
2023/09/19 16:59:49;;;;;;;0.85;0.20;;;;;;;23.23;100.00;100779.13;10375604;28;20045;-80
2023/09/19 17:04:52;;;;;;;0.00;0.00;;;;;;;23.58;100.00;100779.84;10358187;28;20049;-81
2023/09/19 17:09:55;;;;;;;2.28;0.10;;;;;;;23.56;100.00;100780.81;10367241;28;20394;-79
2023/09/19 17:14:56;;;;;;;0.00;0.00;;;;;;;23.17;100.00;100776.66;10390613;28;20509;-81
2023/09/19 17:19:58;;;;;;;0.10;0.00;;;;;;;23.38;100.00;100777.81;10372030;28;20584;-79
2023/09/19 17:25:01;;;;;;;0.00;0.00;;;;;;;23.26;100.00;100783.44;10354993;28;20057;-81
2023/09/19 17:30:05;;;;;;;0.00;0.00;;;;;;;23.31;100.00;100770.19;10386284;28;20042;-80
2023/09/19 17:35:08;;;;;;;0.00;0.00;;;;;;;23.08;100.00;100769.88;10374979;28;20069;-79
2023/09/19 17:40:11;;;;;;;0.22;0.13;;;;;;;23.28;100.00;100771.09;10351482;28;20053;-79
2023/09/19 17:45:15;;;;;;;0.00;0.00;;;;;;;23.20;100.00;100783.59;10390983;28;20050;-80
2023/09/19 17:50:17;;;;;;;0.00;0.00;;;;;;;23.54;100.00;100782.63;10373854;28;20052;-80
2023/09/19 17:55:18;;;;;;;0.00;0.00;;;;;;;23.61;100.00;100773.63;10386735;28;20056;-79
2023/09/19 18:00:21;;;;;;;0.20;0.10;;;;;;;23.34;100.00;100781.47;10390099;28;20045;-81
2023/09/19 18:05:23;;;;;;;0.40;0.32;;;;;;;23.16;100.00;100774.06;10355754;28;20088;-81
2023/09/19 18:10:26;;;;;;;0.00;0.00;;;;;;;23.20;100.00;100783.59;10379075;28;20045;-79
2023/09/19 18:15:32;;;;;;;0.20;0.10;;;;;;;23.01;100.00;100784.09;10367625;28;20052;-80
2023/09/19 18:20:34;;;;;;;0.08;0.08;;;;;;;22.90;100.00;100780.91;10372135;28;20049;-80
2023/09/19 18:25:37;;;;;;;0.00;0.00;;;;;;;23.14;100.00;100780.22;10370016;28;20050;-80
2023/09/19 18:30:39;;;;;;;0.22;0.10;;;;;;;23.07;100.00;100794.44;10369929;28;20058;-80
2023/09/19 18:35:41;;;;;;;0.10;0.10;;;;;;;22.87;100.00;100791.50;10395668;28;20044;-80
2023/09/19 18:40:43;;;;;;;0.60;0.45;;;;;;;22.93;100.00;100791.34;10364283;28;20061;-80
2023/09/19 18:45:54;;;;;;;0.22;0.20;;;;;;;22.79;100.00;100799.56;10365108;28;20504;-80
2023/09/19 18:50:56;;;;;;;0.00;0.00;;;;;;;23.42;100.00;100792.59;10364149;28;20050;-78
2023/09/19 18:56:10;;;;;;;0.95;0.13;;;;;;;23.23;100.00;100809.81;10379050;28;20046;-78
2023/09/19 19:01:12;;;;;;;0.35;0.10;;;;;;;23.09;100.00;100807.53;10388738;28;20100;-80
2023/09/19 19:06:15;;;;;;;0.77;0.08;;;;;;;22.66;100.00;100810.41;10383619;28;20061;-80
2023/09/19 19:11:19;;;;;;;0.10;0.10;;;;;;;23.51;100.00;100822.13;10380172;28;20053;-80
2023/09/19 19:16:21;;;;;;;0.63;0.22;;;;;;;22.87;100.00;100817.78;10371678;28;20049;-79
2023/09/19 19:21:23;;;;;;;0.15;0.15;;;;;;;23.31;100.00;100813.09;10381551;28;20402;-78
2023/09/19 19:26:24;;;;;;;0.60;0.40;;;;;;;22.28;100.00;100808.72;10367146;28;20046;-80
2023/09/19 19:31:27;;;;;;;0.82;0.25;;;;;;;22.98;100.00;100811.31;10364408;28;20077;-80
2023/09/19 19:36:29;;;;;;;0.47;0.10;;;;;;;22.33;100.00;100817.34;10361427;28;20590;-80
2023/09/19 19:41:34;;;;;;;0.13;0.10;;;;;;;22.45;100.00;100817.06;10385952;28;20540;-80
2023/09/19 19:46:36;;;;;;;1.88;0.10;;;;;;;22.49;100.00;100823.97;10363338;28;20405;-79
2023/09/19 19:51:38;;;;;;;0.00;0.00;;;;;;;23.38;100.00;100806.75;10377576;28;20137;-78
2023/09/19 19:56:41;;;;;;;0.00;0.00;;;;;;;22.88;100.00;100806.38;10368361;28;20045;-78
2023/09/19 20:01:43;;;;;;;1.77;1.20;;;;;;;23.01;100.00;100810.38;10379587;28;20141;-79
2023/09/19 20:06:45;;;;;;;0.00;0.00;;;;;;;22.76;100.00;100816.28;10385893;28;20482;-80
2023/09/19 20:11:47;;;;;;;0.10;0.05;;;;;;;;;;10373309;28;20512;-81
2023/09/19 20:16:51;;;;;;;0.10;0.00;;;;;;;22.84;100.00;100823.09;10359474;28;20053;-79
2023/09/19 20:21:54;;;;;;;0.00;0.00;;;;;;;22.73;100.00;100808.50;10374061;28;20060;-80
2023/09/19 20:27:00;;;;;;;0.43;0.17;;;;;;;22.82;100.00;100813.50;10367615;28;20064;-79
2023/09/19 20:32:02;;;;;;;0.00;0.00;;;;;;;22.59;100.00;100824.59;10374407;28;20054;-79
2023/09/19 20:37:05;;;;;;;0.00;0.00;;;;;;;22.87;100.00;100823.88;10390286;28;20077;-80
2023/09/19 20:42:07;;;;;;;0.00;0.00;;;;;;;23.08;100.00;100826.84;10389708;28;20045;-79
2023/09/19 20:47:08;;;;;;;0.35;0.10;;;;;;;22.46;100.00;100829.28;10388384;28;20493;-79
2023/09/19 20:52:11;;;;;;;0.17;0.17;;;;;;;22.77;100.00;100818.00;10367511;28;20100;-79
2023/09/19 20:57:16;;;;;;;0.40;0.05;;;;;;;22.67;100.00;100819.16;10371994;28;20049;-79
2023/09/19 21:02:18;;;;;;;0.00;0.00;;;;;;;22.91;100.00;100819.41;10365243;28;20140;-77
2023/09/19 21:07:19;;;;;;;0.00;0.00;;;;;;;22.61;100.00;100817.56;10371974;28;20042;-80
2023/09/19 21:12:21;;;;;;;0.00;0.00;;;;;;;22.81;100.00;100822.28;10388999;28;20129;-80
2023/09/19 21:17:23;;;;;;;0.00;0.00;;;;;;;22.85;100.00;100809.06;10381188;28;20045;-80
2023/09/19 21:22:28;;;;;;;3.60;0.20;;;;;;;23.30;100.00;100800.84;10358807;28;20049;-79
2023/09/19 21:27:30;;;;;;;5.05;0.65;;;;;;;22.68;100.00;100807.75;10377307;28;20465;-82
2023/09/19 21:32:32;;;;;;;0.13;0.13;;;;;;;22.52;100.00;100801.19;10389269;28;20042;-80
2023/09/19 21:37:34;;;;;;;0.00;0.00;;;;;;;23.29;100.00;100796.47;10376845;28;20116;-79
2023/09/19 21:42:37;;;;;;;0.80;0.52;;;;;;;22.62;100.00;100792.16;10374743;28;20042;-81
2023/09/19 21:47:38;;;;;;;0.22;0.13;;;;;;;22.87;100.00;100791.50;10352765;28;20060;-81
2023/09/19 21:52:40;;;;;;;0.10;0.10;;;;;;;22.59;100.00;100792.25;10374253;28;20080;-80
2023/09/19 21:57:42;;;;;;;1.65;0.28;;;;;;;23.31;100.00;100797.31;10358665;28;20120;-80
2023/09/19 22:02:43;;;;;;;0.00;0.00;;;;;;;22.70;100.00;100800.69;10375934;28;20064;-79
2023/09/19 22:07:46;;;;;;;0.55;0.22;;;;;;;23.21;100.00;100786.22;10390349;28;20088;-80
2023/09/19 22:12:49;;;;;;;0.10;0.10;;;;;;;23.15;100.00;100786.34;10365462;28;20089;-79
2023/09/19 22:17:51;;;;;;;0.05;0.05;;;;;;;23.48;100.00;100782.81;10369678;28;20386;-80
2023/09/19 22:22:56;;;;;;;0.00;0.00;;;;;;;23.20;100.00;100788.84;10373260;28;20112;-80
2023/09/19 22:27:57;;;;;;;0.25;0.10;;;;;;;23.29;100.00;100778.09;10384984;28;20078;-80
2023/09/19 22:33:00;;;;;;;0.65;0.17;;;;;;;22.71;100.00;100784.03;10388992;28;20058;-80
2023/09/19 22:38:02;;;;;;;0.00;0.00;;;;;;;23.36;100.00;100769.09;10389137;28;20096;-79
2023/09/19 22:43:15;;;;;;;0.10;0.10;;;;;;;23.00;100.00;100782.38;10372535;28;20076;-79
2023/09/19 22:48:17;;;;;;;0.17;0.17;;;;;;;23.03;100.00;100776.16;10372233;28;20038;-78
2023/09/19 22:53:21;;;;;;;0.00;0.00;;;;;;;22.98;100.00;100773.66;10368816;28;20049;-79
2023/09/19 22:58:23;;;;;;;0.20;0.20;;;;;;;23.11;100.00;100772.44;10372695;28;20042;-79
2023/09/19 23:03:28;;;;;;;0.00;0.00;;;;;;;23.45;100.00;100770.63;10374327;28;20069;-79